首页
METAR-TAF:

METAR-TAF

机场 :

戴摩波里斯, 阿拉巴马州, 美国

纬度: 32-27-50N, 经度: 087-57-15W, 海拔: 34米

当前天气观测

该预报发布于8分钟前的10:55 UTC
风速7节,风向
温度 21°C
湿度 88%
气压 1014 hPa
能見度: 16.1公里
多云层高于5500英尺
小雨

METAR: KDYA 261055Z AUTO 09007KT 10SM -RA BKN055 21/19 A2993 RMK AO2 T02130187

时间: 06:03 (11:03 UTC)


TAF: 丢失

超过4000个机场的气象观测和天气预报(METAR&TAF报告)。

可查询的气象台以黄色和红色小点在地图上表示。

将鼠标移到小点上方,可查看气象台名称。

然后点击查看天气观测和预报。

如需切换地图:点击带黑十字的绿色按钮放大地图;点击带横线的绿色按钮缩小地图;或者点击绿色箭头查看邻近地区的地图。


METAR-TAF: